< < Back
Terminal Aerodrome Forecast


Current Version              Previous Versions:   1  2  3  4  5  6  7  8  9  

Terminal Aerodrome Forecast

499
FTUS44 KBMX 202300
TAFTCL
TAF
KTCL 202320Z 2100/2124 00000KT P6SM SKC
      TEMPO 2110/2113 4SM BR
     FM211500 24005KT P6SM FEW045=

Latest METAR

170
SAUS70 KWBC 210600 RRE
MTRTCL
METAR KTCL 210553Z AUTO 00000KT 7SM CLR 25/23 A3008 RMK AO2 SLP182
T02500233 10322 20244 403560217 58003


USA.gov is the U.S. government's official web portal to all federal, state and local government web resources and services.